createdAt,value
2019-04-10T04:42:03.204Z,2.10
2019-04-10T05:11:27.218Z,2.60
2019-04-10T05:14:02.767Z,2.70
2019-04-10T05:16:33.066Z,2.70
2019-04-10T05:19:03.769Z,2.70
2019-04-10T05:21:35.029Z,2.80
2019-04-10T05:24:07.437Z,2.80
2019-04-10T05:26:37.431Z,2.90
2019-04-10T05:29:07.207Z,3.00
2019-04-10T05:31:38.806Z,3.00
2019-04-10T05:34:09.338Z,2.90
2019-04-10T05:36:46.988Z,2.90
2019-04-10T05:39:19.556Z,3.10
2019-04-10T05:41:52.453Z,3.10
2019-04-10T05:44:23.687Z,3.20
2019-04-10T05:47:59.076Z,3.20
2019-04-10T05:50:29.914Z,3.20
2019-04-10T05:53:00.420Z,3.40
2019-04-10T05:55:30.960Z,3.40
2019-04-10T05:58:01.667Z,3.50
2019-04-10T06:00:32.642Z,3.60
2019-04-10T06:03:03.940Z,3.50
2019-04-10T06:05:34.160Z,3.50
2019-04-10T06:08:04.299Z,3.50
2019-04-10T06:10:34.309Z,3.60
2019-04-10T06:13:04.721Z,3.70
2019-04-10T06:15:35.057Z,3.80
2019-04-10T06:18:05.245Z,3.90
2019-04-10T06:20:35.448Z,4.00
2019-04-10T06:23:05.436Z,4.10
2019-04-10T06:25:38.012Z,4.10
2019-04-10T06:28:07.349Z,4.40
2019-04-10T06:30:37.297Z,4.40
2019-04-10T06:33:07.550Z,4.60
2019-04-10T06:35:37.733Z,4.90
2019-04-10T06:38:08.139Z,5.30
2019-04-10T06:40:38.106Z,5.40
2019-04-10T06:43:08.604Z,5.50
2019-04-10T06:45:38.618Z,5.40
2019-04-10T06:48:10.928Z,5.30
2019-04-10T06:50:41.282Z,5.30
2019-04-10T06:53:11.431Z,5.30
2019-04-10T06:55:41.421Z,5.40
2019-04-10T06:58:12.386Z,5.30
2019-04-10T07:00:46.625Z,5.20
2019-04-10T07:03:14.872Z,5.20
2019-04-10T07:06:00.449Z,5.40
2019-04-10T07:08:19.499Z,5.40
2019-04-10T07:10:55.424Z,5.50
2019-04-10T07:13:19.754Z,5.70
2019-04-10T07:15:49.884Z,5.70
2019-04-10T07:18:29.998Z,5.80
2019-04-10T07:21:20.368Z,5.80
2019-04-10T07:23:50.344Z,5.70
2019-04-10T07:26:33.260Z,5.70
2019-04-10T07:28:53.371Z,5.80
2019-04-10T07:31:23.840Z,5.80
2019-04-10T07:33:54.857Z,5.60
2019-04-10T07:36:24.766Z,5.60
2019-04-10T07:38:57.287Z,5.60
2019-04-10T07:41:26.825Z,5.70
2019-04-10T07:43:58.009Z,6.10
2019-04-10T07:46:31.191Z,6.40
2019-04-10T07:49:00.708Z,6.60
2019-04-10T07:51:31.815Z,6.50
2019-04-10T07:54:01.961Z,6.30
2019-04-10T07:56:31.778Z,6.30
2019-04-10T07:59:02.701Z,6.30
2019-04-10T08:01:33.448Z,6.50
2019-04-10T08:04:04.182Z,6.80
2019-04-10T08:06:35.235Z,6.80
2019-04-10T08:09:08.361Z,6.60
2019-04-10T08:11:40.838Z,6.60
2019-04-10T08:14:10.887Z,6.60
2019-04-10T08:16:43.978Z,6.90
2019-04-10T08:19:32.807Z,7.30
2019-04-10T08:22:06.197Z,7.40
2019-04-10T08:24:38.455Z,7.20
2019-04-10T08:27:10.264Z,7.20
2019-04-10T08:29:42.758Z,7.20
2019-04-10T08:32:13.905Z,7.20
2019-04-10T08:34:46.445Z,7.50
2019-04-10T08:37:17.233Z,7.50
2019-04-10T08:39:49.157Z,7.50
2019-04-10T08:42:18.916Z,7.50
2019-04-10T08:44:49.024Z,7.40
2019-04-10T08:47:19.366Z,7.40
2019-04-10T08:49:50.799Z,7.50
2019-04-10T08:52:20.732Z,7.70
2019-04-10T08:54:53.204Z,7.80
2019-04-10T08:57:23.160Z,8.10
2019-04-10T08:59:54.108Z,8.10
2019-04-10T09:02:24.404Z,8.20
2019-04-10T09:04:57.345Z,8.40
2019-04-10T09:07:28.321Z,8.50
2019-04-10T09:09:58.324Z,8.60
2019-04-10T09:12:29.492Z,8.80
2019-04-10T09:14:59.644Z,8.60
2019-04-10T09:17:29.703Z,8.60
2019-04-10T09:20:00.577Z,8.80
2019-04-10T09:22:49.065Z,8.80
2019-04-10T09:25:02.859Z,8.90
2019-04-10T09:27:33.671Z,9.00
2019-04-10T09:30:04.627Z,8.90
2019-04-10T09:32:34.713Z,8.90
2019-04-10T09:35:04.711Z,8.90
2019-04-10T09:37:34.717Z,9.00
2019-04-10T09:40:05.622Z,9.10
2019-04-10T09:42:37.955Z,9.10
2019-04-10T09:45:11.444Z,9.20
2019-04-10T09:47:40.055Z,9.30
2019-04-10T09:50:10.516Z,9.60
2019-04-10T09:52:40.760Z,9.70
2019-04-10T09:55:12.300Z,9.70
2019-04-10T09:57:45.062Z,9.50
2019-04-10T10:00:15.669Z,9.60
2019-04-10T10:02:45.519Z,9.60
2019-04-10T10:05:21.265Z,9.80
2019-04-10T10:08:12.494Z,10.20
2019-04-10T10:12:09.514Z,10.70
